Time;durP1;ratioP1;P1;durP2;ratioP2;P2;SDS_P1;SDS_P2;PMS_P1;PMS_P2;Temp;Humidity;BMP_temperature;BMP_pressure;BME280_temperature;BME280_humidity;BME280_pressure;Samples;Min_cycle;Max_cycle;Signal;HPM_P1;HPM_P2
2022/04/07 00:01:37;;;;;;;5.30;4.90;;;10.60;1.00;;;;;;6258157;28;20923;-57
2022/04/07 00:04:40;;;;;;;5.43;4.90;;;10.60;1.00;;;;;;6261178;28;20238;-57
2022/04/07 00:07:43;;;;;;;5.23;4.80;;;10.60;1.00;;;;;;6261614;28;20229;-57
2022/04/07 00:10:48;;;;;;;6.13;4.97;;;10.50;1.00;;;;;;6264391;28;20702;-57
2022/04/07 00:13:50;;;;;;;6.43;4.90;;;10.50;1.00;;;;;;6261028;28;20234;-57
2022/04/07 00:16:54;;;;;;;5.30;5.00;;;10.40;1.00;;;;;;6249043;28;20268;-56
2022/04/07 00:19:57;;;;;;;5.50;4.83;;;10.40;1.00;;;;;;6260899;28;20830;-59
2022/04/07 00:23:00;;;;;;;5.57;4.63;;;10.40;1.00;;;;;;6261509;28;20234;-58
2022/04/07 00:26:04;;;;;;;5.07;4.60;;;10.40;1.00;;;;;;6255119;28;20282;-56
2022/04/07 00:29:07;;;;;;;7.00;4.67;;;10.40;1.00;;;;;;6251923;28;20841;-57
2022/04/07 00:32:10;;;;;;;4.87;4.23;;;10.30;1.00;;;;;;6262090;28;20730;-57
2022/04/07 00:35:13;;;;;;;4.93;4.40;;;10.30;1.00;;;;;;6261962;28;20240;-57
2022/04/07 00:38:16;;;;;;;4.63;4.33;;;10.30;1.00;;;;;;6256124;28;20355;-58
2022/04/07 00:41:20;;;;;;;5.20;4.90;;;10.30;1.00;;;;;;6259801;28;20363;-57
2022/04/07 00:44:24;;;;;;;4.93;4.30;;;10.20;1.00;;;;;;6262364;28;20241;-56
2022/04/07 00:47:27;;;;;;;4.80;4.70;;;10.20;1.00;;;;;;6257650;28;20340;-57
2022/04/07 00:50:30;;;;;;;4.40;4.30;;;10.20;1.00;;;;;;6261840;28;20292;-57
2022/04/07 00:53:33;;;;;;;4.50;4.27;;;10.20;1.00;;;;;;6257965;28;20332;-57
2022/04/07 00:56:38;;;;;;;4.57;4.37;;;10.20;1.00;;;;;;6261372;28;20249;-57
2022/04/07 00:59:41;;;;;;;4.87;4.40;;;10.10;1.00;;;;;;6259750;28;20230;-57
2022/04/07 01:02:44;;;;;;;5.30;4.23;;;10.20;1.00;;;;;;6250457;28;20376;-58
2022/04/07 01:05:47;;;;;;;5.40;4.53;;;10.20;1.00;;;;;;6260534;28;20399;-58
2022/04/07 01:08:49;;;;;;;4.67;4.37;;;10.10;1.00;;;;;;6265159;28;20240;-58
2022/04/07 01:11:54;;;;;;;4.40;4.20;;;10.10;1.00;;;;;;6258697;28;20768;-57
2022/04/07 01:14:59;;;;;;;4.77;4.37;;;10.10;1.00;;;;;;6260484;28;20245;-57
2022/04/07 01:18:02;;;;;;;5.30;4.90;;;10.00;1.00;;;;;;6256154;28;20364;-57
2022/04/07 01:21:06;;;;;;;4.90;4.50;;;10.00;1.00;;;;;;6258249;28;20246;-58
2022/04/07 01:24:10;;;;;;;5.10;4.80;;;10.00;1.00;;;;;;6260615;28;20277;-56
2022/04/07 01:27:16;;;;;;;5.10;4.67;;;10.00;1.00;;;;;;6258788;28;20808;-57
2022/04/07 01:30:18;;;;;;;4.57;4.43;;;10.00;1.00;;;;;;6257549;28;20608;-57
2022/04/07 01:33:22;;;;;;;4.70;4.40;;;10.00;1.00;;;;;;6254220;28;20637;-57
2022/04/07 01:36:26;;;;;;;5.23;4.87;;;10.10;1.00;;;;;;6259521;28;20238;-57
2022/04/07 01:39:30;;;;;;;4.60;4.40;;;10.00;1.00;;;;;;6263248;28;20780;-56
2022/04/07 01:42:36;;;;;;;5.80;5.40;;;10.00;1.00;;;;;;6264184;28;20316;-56
2022/04/07 01:45:41;;;;;;;5.30;4.90;;;10.00;1.00;;;;;;6260634;28;20291;-57
2022/04/07 01:48:45;;;;;;;5.30;4.90;;;10.00;1.00;;;;;;6263957;28;20641;-56
2022/04/07 01:51:49;;;;;;;5.93;4.63;;;9.90;1.00;;;;;;6258979;28;20464;-56
2022/04/07 01:54:53;;;;;;;5.03;4.73;;;9.90;1.00;;;;;;6255014;28;20677;-56
2022/04/07 01:57:57;;;;;;;5.47;5.07;;;9.90;1.00;;;;;;6259301;28;20316;-58
2022/04/07 02:01:00;;;;;;;5.63;5.13;;;9.90;1.00;;;;;;6260687;28;20248;-57
2022/04/07 02:04:04;;;;;;;6.17;5.63;;;9.90;1.00;;;;;;6247058;28;20365;-57
2022/04/07 02:07:07;;;;;;;5.63;5.23;;;9.80;1.00;;;;;;6260918;28;20269;-57
2022/04/07 02:10:11;;;;;;;6.17;5.70;;;9.80;1.00;;;;;;6260178;28;20240;-58
2022/04/07 02:13:15;;;;;;;6.10;5.70;;;9.80;1.00;;;;;;6254273;28;20668;-57
2022/04/07 02:16:19;;;;;;;6.33;5.93;;;9.90;1.00;;;;;;6234601;28;20757;-56
2022/04/07 02:19:21;;;;;;;6.67;5.97;;;9.90;1.00;;;;;;6239627;28;20842;-57
2022/04/07 02:22:28;;;;;;;6.50;6.03;;;9.90;1.00;;;;;;6260462;28;20237;-56
2022/04/07 02:25:31;;;;;;;6.50;5.90;;;9.80;1.00;;;;;;6259966;28;20928;-57
2022/04/07 02:28:35;;;;;;;6.63;5.83;;;9.90;1.00;;;;;;6247447;28;20650;-57
2022/04/07 02:31:37;;;;;;;6.10;5.70;;;9.90;1.00;;;;;;6233628;28;20431;-57
2022/04/07 02:34:41;;;;;;;6.67;6.17;;;9.90;1.00;;;;;;6246520;28;20369;-56
2022/04/07 02:37:44;;;;;;;7.30;6.60;;;9.80;1.00;;;;;;6260149;28;20616;-57
2022/04/07 02:40:47;;;;;;;11.03;6.60;;;9.80;1.00;;;;;;6255954;28;20257;-57
2022/04/07 02:43:51;;;;;;;7.63;6.97;;;9.80;1.00;;;;;;6259349;28;20233;-57
2022/04/07 02:46:54;;;;;;;8.93;6.93;;;9.70;1.00;;;;;;6257092;28;20674;-59
2022/04/07 02:49:57;;;;;;;7.00;6.30;;;9.70;1.00;;;;;;6234450;28;20234;-57
2022/04/07 02:52:59;;;;;;;7.90;7.27;;;9.70;1.00;;;;;;6233939;28;20234;-57
2022/04/07 02:56:02;;;;;;;6.90;6.40;;;9.70;1.00;;;;;;6235415;28;20235;-56
2022/04/07 02:59:06;;;;;;;6.73;6.37;;;9.70;1.00;;;;;;6233055;28;20315;-57
2022/04/07 03:02:09;;;;;;;6.57;6.17;;;9.70;1.00;;;;;;6234854;28;20731;-56
2022/04/07 03:05:12;;;;;;;7.53;6.80;;;9.70;1.00;;;;;;6244390;28;20250;-56
2022/04/07 03:08:15;;;;;;;6.43;6.03;;;9.70;1.00;;;;;;6246257;28;20725;-56
2022/04/07 03:11:18;;;;;;;6.87;6.47;;;9.70;1.00;;;;;;6259182;28;20325;-57
2022/04/07 03:14:26;;;;;;;7.37;6.57;;;9.60;1.00;;;;;;6261731;28;20257;-56
2022/04/07 03:17:29;;;;;;;8.10;7.43;;;9.60;1.00;;;;;;6244087;28;20704;-57
2022/04/07 03:20:32;;;;;;;8.40;7.70;;;9.60;1.00;;;;;;6243589;28;20699;-56
2022/04/07 03:23:35;;;;;;;7.90;7.10;;;9.60;1.00;;;;;;6238936;28;20265;-56
2022/04/07 03:26:38;;;;;;;7.63;6.87;;;9.60;1.00;;;;;;6239363;28;20238;-56
2022/04/07 03:29:48;;;;;;;8.27;7.47;;;9.50;1.00;;;;;;6246521;28;20237;-57
2022/04/07 03:32:50;;;;;;;7.70;7.03;;;9.50;1.00;;;;;;6247515;28;20229;-58
2022/04/07 03:35:53;;;;;;;7.33;6.63;;;9.50;1.00;;;;;;6269905;28;20320;-56
2022/04/07 03:38:56;;;;;;;7.73;6.97;;;9.50;1.00;;;;;;6264524;28;20332;-58
2022/04/07 03:41:59;;;;;;;8.23;6.90;;;9.50;1.00;;;;;;6265727;28;20287;-57
2022/04/07 03:45:03;;;;;;;7.10;6.70;;;9.40;1.00;;;;;;6265294;28;20370;-57
2022/04/07 03:48:06;;;;;;;7.30;6.80;;;9.40;1.00;;;;;;6265494;28;20313;-57
2022/04/07 03:51:09;;;;;;;7.37;6.77;;;9.40;1.00;;;;;;6263184;28;20276;-57
2022/04/07 03:54:12;;;;;;;7.40;6.77;;;9.40;1.00;;;;;;6272806;28;20348;-57
2022/04/07 03:57:14;;;;;;;6.87;6.37;;;9.40;1.00;;;;;;6259924;28;20333;-57
2022/04/07 04:00:19;;;;;;;6.50;6.00;;;9.40;1.00;;;;;;6268870;28;20622;-56
2022/04/07 04:03:22;;;;;;;7.23;6.73;;;9.50;1.00;;;;;;6265052;28;20345;-57
2022/04/07 04:06:25;;;;;;;6.63;6.23;;;9.50;1.00;;;;;;6252598;28;20841;-56
2022/04/07 04:09:28;;;;;;;7.13;6.63;;;9.50;1.00;;;;;;6263254;28;20372;-56
2022/04/07 04:12:30;;;;;;;7.10;6.70;;;9.50;1.00;;;;;;6266721;28;20813;-56
2022/04/07 04:15:35;;;;;;;7.73;7.13;;;9.60;1.00;;;;;;6260704;28;20711;-57
2022/04/07 04:18:37;;;;;;;6.93;6.43;;;9.60;1.00;;;;;;6266778;28;20440;-56
2022/04/07 04:21:40;;;;;;;6.60;6.17;;;9.60;1.00;;;;;;6269198;28;20240;-57
2022/04/07 04:24:44;;;;;;;7.37;6.87;;;9.70;1.00;;;;;;6272598;28;20249;-56
2022/04/07 04:27:46;;;;;;;6.70;6.20;;;9.70;1.00;;;;;;6271318;28;20581;-56
2022/04/07 04:30:50;;;;;;;6.60;5.97;;;9.70;1.00;;;;;;6274813;28;20226;-58
2022/04/07 04:33:53;;;;;;;6.93;6.50;;;9.70;1.00;;;;;;6267345;28;20226;-57
2022/04/07 04:36:56;;;;;;;6.30;5.90;;;9.80;1.00;;;;;;6257186;28;20754;-57
2022/04/07 04:39:59;;;;;;;6.27;5.87;;;9.80;1.00;;;;;;6257056;28;20226;-58
2022/04/07 04:43:01;;;;;;;6.13;5.80;;;9.70;1.00;;;;;;6263481;28;20707;-57
2022/04/07 04:46:07;;;;;;;7.30;6.70;;;9.70;1.00;;;;;;6269936;28;20234;-56
2022/04/07 04:49:10;;;;;;;6.57;6.20;;;9.70;1.00;;;;;;6258011;28;20288;-56
2022/04/07 04:52:13;;;;;;;5.97;5.50;;;9.70;1.00;;;;;;6254578;28;20229;-55
2022/04/07 04:55:16;;;;;;;7.13;6.53;;;9.80;1.00;;;;;;6264648;28;20282;-57
2022/04/07 04:58:18;;;;;;;5.80;5.40;;;9.70;1.00;;;;;;6256636;28;20234;-58
2022/04/07 05:01:22;;;;;;;5.90;5.60;;;9.70;1.00;;;;;;6259619;28;20365;-57
2022/04/07 05:04:25;;;;;;;5.87;5.53;;;9.70;1.00;;;;;;6254658;28;20240;-57
2022/04/07 05:07:30;;;;;;;7.13;6.53;;;9.70;1.00;;;;;;6261851;28;20256;-57
2022/04/07 05:10:33;;;;;;;6.90;6.37;;;9.70;1.00;;;;;;6261808;28;20673;-57
2022/04/07 05:13:35;;;;;;;7.00;6.50;;;9.70;1.00;;;;;;6260439;28;20294;-57
2022/04/07 05:16:39;;;;;;;6.90;6.40;;;9.70;1.00;;;;;;6259141;28;20633;-59
2022/04/07 05:19:44;;;;;;;6.27;5.83;;;9.70;1.00;;;;;;6255314;28;20230;-58
2022/04/07 05:22:47;;;;;;;6.23;5.83;;;9.70;1.00;;;;;;6257375;28;20237;-57
2022/04/07 05:25:50;;;;;;;6.53;6.03;;;9.80;1.00;;;;;;6260016;28;20249;-57
2022/04/07 05:28:53;;;;;;;6.50;6.10;;;9.80;1.00;;;;;;6255677;28;20767;-57
2022/04/07 05:31:57;;;;;;;6.93;6.23;;;9.70;1.00;;;;;;6252331;28;20233;-57
2022/04/07 05:35:06;;;;;;;6.30;6.00;;;9.70;1.00;;;;;;6261061;28;20240;-57
2022/04/07 05:38:09;;;;;;;6.53;6.13;;;9.60;1.00;;;;;;6257982;28;20710;-55
2022/04/07 05:41:12;;;;;;;6.00;5.60;;;9.70;1.00;;;;;;6270613;28;20320;-56
2022/04/07 05:44:14;;;;;;;6.50;6.10;;;9.70;1.00;;;;;;6277396;28;20229;-59
2022/04/07 05:47:18;;;;;;;6.23;5.77;;;9.80;1.00;;;;;;6267212;28;20806;-57
2022/04/07 05:50:21;;;;;;;6.00;5.60;;;9.90;1.00;;;;;;6259087;28;20238;-57
2022/04/07 05:53:24;;;;;;;5.90;5.60;;;10.00;1.00;;;;;;6258396;28;20374;-57
2022/04/07 05:56:26;;;;;;;6.73;6.00;;;10.00;1.00;;;;;;6251582;28;20280;-56
2022/04/07 05:59:29;;;;;;;5.57;5.10;;;10.00;1.00;;;;;;6258512;28;20280;-59
2022/04/07 06:02:33;;;;;;;5.97;5.50;;;10.10;1.00;;;;;;6262413;28;20240;-56
2022/04/07 06:05:36;;;;;;;5.53;5.13;;;10.20;1.00;;;;;;6263978;28;20244;-55
2022/04/07 06:08:39;;;;;;;5.40;5.10;;;10.30;1.00;;;;;;6253842;28;20259;-56
2022/04/07 06:11:41;;;;;;;5.57;5.07;;;10.40;1.00;;;;;;6259039;28;20323;-56
2022/04/07 06:14:44;;;;;;;5.63;5.33;;;10.50;1.00;;;;;;6264943;28;20619;-56
2022/04/07 06:17:50;;;;;;;5.37;5.07;;;10.60;1.00;;;;;;6259146;28;20234;-56
2022/04/07 06:20:52;;;;;;;5.47;5.20;;;10.60;1.00;;;;;;6258181;28;20233;-57
2022/04/07 06:23:55;;;;;;;5.00;4.80;;;10.70;1.00;;;;;;6257852;28;20503;-57
2022/04/07 06:26:58;;;;;;;5.50;5.00;;;10.80;1.00;;;;;;6259545;28;20238;-57
2022/04/07 06:30:00;;;;;;;5.17;4.87;;;10.90;1.00;;;;;;6263219;28;20368;-56
2022/04/07 06:33:05;;;;;;;4.67;4.47;;;11.00;1.00;;;;;;6260996;28;20244;-57
2022/04/07 06:36:07;;;;;;;4.77;4.57;;;11.10;1.00;;;;;;6257523;28;20230;-57
2022/04/07 06:39:10;;;;;;;4.23;4.03;;;11.20;1.00;;;;;;6252615;28;20248;-57
2022/04/07 06:42:13;;;;;;;4.47;4.30;;;11.20;1.00;;;;;;6260513;28;20349;-57
2022/04/07 06:45:15;;;;;;;4.60;4.40;;;11.30;1.00;;;;;;6276869;28;20747;-57
2022/04/07 06:48:20;;;;;;;4.20;4.00;;;11.30;1.00;;;;;;6257187;28;20332;-57
2022/04/07 06:51:22;;;;;;;4.97;4.50;;;11.30;1.00;;;;;;6261690;28;20246;-58
2022/04/07 06:54:25;;;;;;;4.53;4.30;;;11.40;1.00;;;;;;6268623;28;20256;-58
2022/04/07 06:57:27;;;;;;;5.30;4.37;;;11.40;1.00;;;;;;6264006;28;20237;-57
2022/04/07 07:00:32;;;;;;;4.77;4.37;;;11.50;1.00;;;;;;6261333;28;20710;-57
2022/04/07 07:03:36;;;;;;;4.47;4.17;;;11.40;1.00;;;;;;6261895;28;20741;-57
2022/04/07 07:06:39;;;;;;;4.57;4.40;;;11.50;1.00;;;;;;6273803;28;20268;-57
2022/04/07 07:09:41;;;;;;;4.43;4.23;;;11.50;1.00;;;;;;6260199;28;20838;-55
2022/04/07 07:12:44;;;;;;;4.27;4.10;;;11.70;1.00;;;;;;6271447;28;20733;-56
2022/04/07 07:15:47;;;;;;;4.20;3.90;;;11.70;1.00;;;;;;6261388;28;20238;-56
2022/04/07 07:18:51;;;;;;;4.80;4.30;;;11.70;1.00;;;;;;6269206;28;20222;-56
2022/04/07 07:21:54;;;;;;;4.17;4.03;;;11.80;1.00;;;;;;6261727;28;20785;-57
2022/04/07 07:24:56;;;;;;;3.70;3.60;;;11.90;1.00;;;;;;6260496;28;20236;-57
2022/04/07 07:28:00;;;;;;;3.93;3.83;;;12.00;1.00;;;;;;6260866;28;20613;-57
2022/04/07 07:31:03;;;;;;;4.07;3.87;;;12.20;1.00;;;;;;6260136;28;20321;-56
2022/04/07 07:34:07;;;;;;;3.53;3.43;;;12.50;1.00;;;;;;6265431;28;20245;-56
2022/04/07 07:37:10;;;;;;;3.53;3.43;;;12.60;1.00;;;;;;6259965;28;20315;-57
2022/04/07 07:40:13;;;;;;;3.67;3.43;;;12.60;1.00;;;;;;6258550;28;20233;-56
2022/04/07 07:43:16;;;;;;;4.13;3.83;;;12.80;1.00;;;;;;6263038;28;20231;-58
2022/04/07 07:46:20;;;;;;;3.93;3.67;;;12.80;1.00;;;;;;6277735;28;20237;-57
2022/04/07 07:49:24;;;;;;;3.60;3.33;;;12.80;1.00;;;;;;6289994;28;20616;-57
2022/04/07 07:52:27;;;;;;;3.23;3.03;;;12.90;1.00;;;;;;6279237;28;20793;-57
2022/04/07 07:55:29;;;;;;;3.50;3.40;;;13.00;1.00;;;;;;6264777;28;20603;-58
2022/04/07 07:58:32;;;;;;;3.50;3.40;;;12.90;1.00;;;;;;6266302;28;20506;-57
2022/04/07 08:01:35;;;;;;;3.50;3.20;;;13.00;1.00;;;;;;6273951;28;20259;-57
2022/04/07 08:04:39;;;;;;;3.70;3.40;;;13.20;1.00;;;;;;6285541;28;20240;-58
2022/04/07 08:07:42;;;;;;;3.17;3.07;;;13.30;1.00;;;;;;6259870;28;20598;-57
2022/04/07 08:10:45;;;;;;;3.63;3.53;;;13.30;1.00;;;;;;6261497;28;20253;-58
2022/04/07 08:13:48;;;;;;;3.33;3.13;;;13.40;1.00;;;;;;6264909;28;20320;-58
2022/04/07 08:16:50;;;;;;;3.10;3.00;;;13.50;1.00;;;;;;6272409;28;20242;-58
2022/04/07 08:19:55;;;;;;;3.00;2.97;;;13.50;1.00;;;;;;6259739;28;20388;-57
2022/04/07 08:22:57;;;;;;;3.37;3.20;;;13.60;1.00;;;;;;6259584;28;20332;-58
2022/04/07 08:26:00;;;;;;;3.33;3.03;;;13.60;1.00;;;;;;6265295;28;20327;-58
2022/04/07 08:29:04;;;;;;;3.00;2.80;;;13.60;1.00;;;;;;6263791;28;20233;-58
2022/04/07 08:32:07;;;;;;;5.30;2.93;;;13.70;1.00;;;;;;6263442;28;20767;-60
2022/04/07 08:35:11;;;;;;;3.00;2.80;;;13.70;1.00;;;;;;6258409;28;20237;-54
2022/04/07 08:38:15;;;;;;;2.87;2.83;;;13.80;1.00;;;;;;6264662;28;20379;-59
2022/04/07 08:41:19;;;;;;;3.40;3.20;;;13.90;1.00;;;;;;6256268;28;20288;-58
2022/04/07 08:44:23;;;;;;;3.13;2.80;;;13.90;1.00;;;;;;6263350;28;20484;-58
2022/04/07 08:47:26;;;;;;;2.90;2.80;;;13.80;1.00;;;;;;6263489;28;20233;-57
2022/04/07 08:50:35;;;;;;;2.60;2.60;;;13.90;1.00;;;;;;6259165;28;20241;-56
2022/04/07 08:53:38;;;;;;;2.57;2.40;;;14.10;1.00;;;;;;6253111;28;20368;-58
2022/04/07 08:56:41;;;;;;;2.67;2.50;;;14.10;1.00;;;;;;6259457;28;20518;-58
2022/04/07 08:59:44;;;;;;;2.40;2.40;;;14.20;1.00;;;;;;6257501;28;20784;-58
2022/04/07 09:02:47;;;;;;;2.30;2.30;;;14.20;1.00;;;;;;6266687;28;20572;-58
2022/04/07 09:05:59;;;;;;;2.30;2.30;;;14.20;1.00;;;;;;6258973;28;20341;-58
2022/04/07 09:09:11;;;;;;;2.20;2.10;;;14.20;1.00;;;;;;6260296;28;20230;-58
2022/04/07 09:12:24;;;;;;;1.93;1.93;;;14.20;1.00;;;;;;6272572;28;20798;-57
2022/04/07 09:15:28;;;;;;;5.27;2.00;;;14.30;1.00;;;;;;6249743;28;20742;-57
2022/04/07 09:18:35;;;;;;;2.20;2.20;;;14.40;1.00;;;;;;6258640;28;20299;-58
2022/04/07 09:21:39;;;;;;;5.63;2.00;;;14.30;1.00;;;;;;6259974;28;20751;-59
2022/04/07 09:24:43;;;;;;;2.17;1.90;;;14.50;1.00;;;;;;6261902;28;20507;-58
2022/04/07 09:27:49;;;;;;;2.23;2.10;;;14.50;1.00;;;;;;6262787;28;20229;-58
2022/04/07 09:30:52;;;;;;;1.97;1.97;;;14.40;1.00;;;;;;6271794;28;20268;-56
2022/04/07 09:33:56;;;;;;;1.77;1.77;;;14.50;1.00;;;;;;6273397;28;20248;-58
2022/04/07 09:37:08;;;;;;;2.00;2.00;;;14.60;1.00;;;;;;6271232;28;20233;-58
2022/04/07 09:40:13;;;;;;;2.20;2.20;;;14.50;1.00;;;;;;6260959;28;20245;-58
2022/04/07 09:43:16;;;;;;;2.10;2.00;;;14.60;1.00;;;;;;6260956;28;20361;-59
2022/04/07 09:46:22;;;;;;;3.13;2.30;;;14.40;1.00;;;;;;6265220;28;20767;-58
2022/04/07 09:49:25;;;;;;;1.73;1.73;;;14.50;1.00;;;;;;6271765;28;20244;-58
2022/04/07 09:52:30;;;;;;;5.87;1.93;;;14.60;1.00;;;;;;6257326;28;20288;-57
2022/04/07 09:55:35;;;;;;;1.93;1.93;;;14.70;1.00;;;;;;6261159;28;20495;-58
2022/04/07 09:58:39;;;;;;;1.90;1.80;;;14.60;1.00;;;;;;6258307;28;20611;-56
2022/04/07 10:01:41;;;;;;;1.80;1.80;;;14.50;1.00;;;;;;6260850;28;20736;-57
2022/04/07 10:04:45;;;;;;;2.13;2.10;;;14.40;1.00;;;;;;6254367;28;20239;-56
2022/04/07 10:07:50;;;;;;;2.27;2.07;;;14.20;1.00;;;;;;6258196;28;20300;-58
2022/04/07 10:10:53;;;;;;;1.90;1.90;;;14.10;1.00;;;;;;6264695;28;20283;-56
2022/04/07 10:13:57;;;;;;;2.30;2.10;;;14.10;1.00;;;;;;6258804;28;20229;-58
2022/04/07 10:17:18;;;;;;;1.87;1.87;;;14.10;1.00;;;;;;6261215;28;20464;-58
2022/04/07 10:20:27;;;;;;;5.40;1.93;;;14.30;1.00;;;;;;6267806;28;20283;-58
2022/04/07 10:23:47;;;;;;;1.93;1.83;;;14.40;1.00;;;;;;6259429;28;20545;-58
2022/04/07 10:26:51;;;;;;;2.10;2.10;;;14.60;1.00;;;;;;6253669;28;20773;-58
2022/04/07 10:30:10;;;;;;;2.27;2.17;;;14.80;1.00;;;;;;6261129;28;20226;-58
2022/04/07 10:33:32;;;;;;;1.90;1.80;;;14.80;1.00;;;;;;6267970;28;20253;-57
2022/04/07 10:36:39;;;;;;;1.90;1.90;;;14.60;1.00;;;;;;6250321;28;20233;-58
2022/04/07 10:39:47;;;;;;;2.30;2.10;;;14.50;1.00;;;;;;6253831;28;20241;-57
2022/04/07 10:43:10;;;;;;;1.80;1.70;;;14.50;1.00;;;;;;6257797;28;20225;-58
2022/04/07 10:46:18;;;;;;;2.17;2.13;;;14.50;1.00;;;;;;6265957;28;20649;-58
2022/04/07 10:49:24;;;;;;;2.93;2.00;;;14.50;1.00;;;;;;6259792;28;20246;-58
2022/04/07 10:52:28;;;;;;;2.03;2.00;;;14.40;1.00;;;;;;6261801;28;20741;-58
2022/04/07 10:55:55;;;;;;;2.50;2.13;;;14.30;1.00;;;;;;6269652;28;20653;-58
2022/04/07 10:59:11;;;;;;;3.30;2.00;;;14.30;1.00;;;;;;6257515;28;20261;-58
2022/04/07 11:02:15;;;;;;;2.30;2.20;;;14.10;1.00;;;;;;6261439;28;20341;-58
2022/04/07 11:05:24;;;;;;;2.40;2.40;;;14.00;1.00;;;;;;6263737;28;20260;-58
2022/04/07 11:08:30;;;;;;;2.43;2.43;;;13.80;1.00;;;;;;6270779;28;20225;-58
2022/04/07 11:12:08;;;;;;;2.70;2.50;;;13.70;1.00;;;;;;6288303;28;20233;-58
2022/04/07 11:15:33;;;;;;;2.57;2.47;;;13.50;1.00;;;;;;6257211;28;20344;-58
2022/04/07 11:18:48;;;;;;;2.83;2.77;;;13.30;1.00;;;;;;6247613;28;20252;-59
2022/04/07 11:21:52;;;;;;;2.80;2.63;;;13.30;1.00;;;;;;6251295;28;20743;-57
2022/04/07 11:24:55;;;;;;;2.60;2.50;;;13.40;1.00;;;;;;6257149;28;20235;-58
2022/04/07 11:28:10;;;;;;;2.63;2.43;;;13.40;1.00;;;;;;6258421;28;20225;-59
2022/04/07 11:31:40;;;;;;;2.13;2.10;;;13.40;1.00;;;;;;6254600;28;20508;-60
2022/04/07 11:34:51;;;;;;;2.20;2.20;;;13.40;1.00;;;;;;6256605;28;20618;-58
2022/04/07 11:37:54;;;;;;;2.20;2.20;;;13.50;1.00;;;;;;6287305;28;20226;-58
2022/04/07 11:41:00;;;;;;;2.70;2.60;;;13.50;1.00;;;;;;6270638;28;20652;-56
2022/04/07 11:44:09;;;;;;;2.73;2.73;;;13.50;1.00;;;;;;6279173;28;20577;-57
2022/04/07 11:47:23;;;;;;;2.47;2.47;;;13.60;1.00;;;;;;6266145;28;20771;-58
2022/04/07 11:50:25;;;;;;;3.40;3.10;;;13.60;1.00;;;;;;6260995;28;20313;-55
2022/04/07 11:53:29;;;;;;;2.63;2.53;;;13.70;1.00;;;;;;6274799;28;20291;-56
2022/04/07 11:56:38;;;;;;;2.70;2.60;;;13.80;1.00;;;;;;6260790;28;20238;-58
2022/04/07 11:59:44;;;;;;;2.30;2.30;;;13.70;1.00;;;;;;6259916;28;20404;-58
2022/04/07 12:02:58;;;;;;;4.17;2.33;;;13.60;1.00;;;;;;6261414;28;20252;-58
2022/04/07 12:06:01;;;;;;;4.20;2.93;;;13.50;1.00;;;;;;6257766;28;20564;-58
2022/04/07 12:09:05;;;;;;;2.87;2.77;;;13.40;1.00;;;;;;6262905;28;20730;-57
2022/04/07 12:12:09;;;;;;;2.70;2.60;;;13.20;1.00;;;;;;6262480;28;20303;-56
2022/04/07 12:15:16;;;;;;;2.43;2.43;;;13.10;1.00;;;;;;6266007;28;20324;-52
2022/04/07 12:18:25;;;;;;;2.30;2.20;;;13.00;1.00;;;;;;6263541;28;20738;-56
2022/04/07 12:21:29;;;;;;;2.50;2.50;;;12.90;1.00;;;;;;6263583;28;20714;-57
2022/04/07 12:24:32;;;;;;;2.80;2.70;;;12.80;1.00;;;;;;6271248;28;20258;-57
2022/04/07 12:27:35;;;;;;;2.37;2.37;;;12.80;1.00;;;;;;6266827;28;20253;-56
2022/04/07 12:30:50;;;;;;;2.60;2.40;;;12.70;1.00;;;;;;6260016;28;20276;-57
2022/04/07 12:33:53;;;;;;;2.57;2.37;;;12.70;1.00;;;;;;6260493;28;20296;-56
2022/04/07 12:36:56;;;;;;;2.57;2.47;;;12.60;1.00;;;;;;6264975;28;20360;-57
2022/04/07 12:40:06;;;;;;;2.50;2.40;;;12.70;1.00;;;;;;6267323;28;20609;-56
2022/04/07 12:43:09;;;;;;;2.87;2.70;;;12.60;1.00;;;;;;6260076;28;20230;-57
2022/04/07 12:46:13;;;;;;;2.83;2.50;;;12.60;1.00;;;;;;6265178;28;20857;-56
2022/04/07 12:49:24;;;;;;;2.63;2.50;;;12.50;1.00;;;;;;6259943;28;20226;-56
2022/04/07 12:52:38;;;;;;;3.53;2.50;;;12.60;1.00;;;;;;6270306;28;20240;-56
2022/04/07 12:55:41;;;;;;;2.23;2.23;;;12.50;1.00;;;;;;6261193;28;20234;-57
2022/04/07 12:58:44;;;;;;;3.10;2.60;;;12.50;1.00;;;;;;6262884;28;20372;-57
2022/04/07 13:01:55;;;;;;;2.83;2.60;;;12.40;1.00;;;;;;6262904;28;20239;-57
2022/04/07 13:04:58;;;;;;;2.67;2.57;;;12.40;1.00;;;;;;6257033;28;20241;-56
2022/04/07 13:08:03;;;;;;;2.63;2.60;;;12.50;1.00;;;;;;6258878;28;20372;-57
2022/04/07 13:11:06;;;;;;;2.83;2.63;;;12.60;1.00;;;;;;6252145;28;20309;-57
2022/04/07 13:14:11;;;;;;;5.27;2.40;;;12.90;1.00;;;;;;6266498;28;20617;-57
2022/04/07 13:17:15;;;;;;;3.00;2.80;;;12.90;1.00;;;;;;6252891;28;20533;-58
2022/04/07 13:20:18;;;;;;;2.87;2.67;;;12.80;1.00;;;;;;6260505;28;20719;-58
2022/04/07 13:23:21;;;;;;;2.40;2.30;;;12.80;1.00;;;;;;6262894;28;20245;-58
2022/04/07 13:26:24;;;;;;;3.07;2.50;;;12.80;1.00;;;;;;6265574;28;20281;-58
2022/04/07 13:29:27;;;;;;;2.80;2.60;;;12.70;1.00;;;;;;6264960;28;20383;-57
2022/04/07 13:32:31;;;;;;;6.23;2.87;;;12.80;1.00;;;;;;6258996;28;20319;-58
2022/04/07 13:35:34;;;;;;;3.50;2.77;;;12.90;1.00;;;;;;6269367;28;20698;-58
2022/04/07 13:38:37;;;;;;;3.67;3.30;;;12.90;1.00;;;;;;6259672;28;20455;-59
2022/04/07 13:41:40;;;;;;;7.70;2.60;;;12.80;1.00;;;;;;6263416;28;20237;-58
2022/04/07 13:44:42;;;;;;;3.03;2.60;;;12.70;1.00;;;;;;6262600;28;20375;-58
2022/04/07 13:47:46;;;;;;;2.67;2.53;;;12.90;1.00;;;;;;6263377;28;20321;-57
2022/04/07 13:50:49;;;;;;;5.40;2.50;;;12.90;1.00;;;;;;6253726;28;20625;-58
2022/04/07 13:53:52;;;;;;;5.60;3.00;;;12.90;1.00;;;;;;6257724;28;20297;-55
2022/04/07 13:56:55;;;;;;;4.60;3.07;;;12.80;1.00;;;;;;6257541;28;20347;-57
2022/04/07 13:59:58;;;;;;;4.33;2.70;;;12.70;1.00;;;;;;6266013;28;20376;-56
2022/04/07 14:03:02;;;;;;;6.67;2.60;;;12.60;1.00;;;;;;6259743;28;20238;-56
2022/04/07 14:06:05;;;;;;;5.60;2.47;;;12.60;1.00;;;;;;6265882;28;20272;-57
2022/04/07 14:09:11;;;;;;;2.10;2.10;;;12.30;1.00;;;;;;6282515;28;20316;-57
2022/04/07 14:12:15;;;;;;;2.30;2.10;;;11.50;1.00;;;;;;6264710;28;20229;-59
2022/04/07 14:15:19;;;;;;;2.30;2.10;;;10.60;1.00;;;;;;6257069;28;20339;-55
2022/04/07 14:18:23;;;;;;;2.00;1.90;;;10.20;1.00;;;;;;6259520;28;20234;-56
2022/04/07 14:21:25;;;;;;;2.13;2.07;;;9.80;1.00;;;;;;6254490;28;20330;-56
2022/04/07 14:24:29;;;;;;;2.17;2.10;;;9.60;1.00;;;;;;6260838;28;20242;-55
2022/04/07 14:27:31;;;;;;;2.10;2.10;;;9.40;1.00;;;;;;6259149;28;20289;-55
2022/04/07 14:30:34;;;;;;;2.30;2.20;;;9.20;1.00;;;;;;6257498;28;20321;-56
2022/04/07 14:33:38;;;;;;;2.40;2.10;;;9.10;1.00;;;;;;6261575;28;20265;-57
2022/04/07 14:36:41;;;;;;;2.70;2.50;;;9.00;1.00;;;;;;6268875;28;20380;-57
2022/04/07 14:39:44;;;;;;;2.63;2.50;;;8.80;1.00;;;;;;6266032;28;20340;-56
2022/04/07 14:42:47;;;;;;;2.57;2.40;;;8.80;1.00;;;;;;6267453;28;20237;-57
2022/04/07 14:45:51;;;;;;;2.50;2.40;;;8.80;1.00;;;;;;6262159;28;20315;-57
2022/04/07 14:48:55;;;;;;;2.90;2.67;;;8.70;1.00;;;;;;6255127;28;20240;-56
2022/04/07 14:51:59;;;;;;;2.33;2.33;;;8.60;1.00;;;;;;6257275;28;20233;-56
2022/04/07 14:55:02;;;;;;;2.33;2.33;;;8.60;1.00;;;;;;6267228;28;20251;-56
2022/04/07 14:58:05;;;;;;;2.23;2.23;;;8.60;1.00;;;;;;6257006;28;20315;-56
2022/04/07 15:01:07;;;;;;;2.27;2.27;;;8.70;1.00;;;;;;6254885;28;20230;-53
2022/04/07 15:04:13;;;;;;;2.70;2.60;;;8.60;1.00;;;;;;6262354;28;20591;-56
2022/04/07 15:07:16;;;;;;;2.83;2.67;;;8.60;1.00;;;;;;6260437;28;20653;-56
2022/04/07 15:10:18;;;;;;;2.50;2.50;;;8.60;1.00;;;;;;6270566;28;20321;-56
2022/04/07 15:13:21;;;;;;;2.43;2.30;;;8.80;1.00;;;;;;6287757;28;20852;-56
2022/04/07 15:16:24;;;;;;;2.33;2.33;;;9.00;1.00;;;;;;6277068;28;20741;-56
2022/04/07 15:19:28;;;;;;;2.47;2.33;;;9.30;1.00;;;;;;6266075;28;20679;-56
2022/04/07 15:22:32;;;;;;;2.43;2.33;;;9.60;1.00;;;;;;6262572;28;20234;-56
2022/04/07 15:25:35;;;;;;;2.50;2.50;;;9.80;1.00;;;;;;6259696;28;20399;-55
2022/04/07 15:28:37;;;;;;;2.43;2.33;;;9.90;1.00;;;;;;6260824;28;20277;-57
2022/04/07 15:31:40;;;;;;;2.53;2.40;;;9.90;1.00;;;;;;6257714;28;20313;-56
2022/04/07 15:34:44;;;;;;;2.30;2.30;;;10.10;1.00;;;;;;6269214;28;20317;-56
2022/04/07 15:37:47;;;;;;;2.00;2.00;;;10.30;1.00;;;;;;6262067;28;20333;-56
2022/04/07 15:40:50;;;;;;;2.47;2.37;;;10.20;1.00;;;;;;6259002;28;20226;-57
2022/04/07 15:43:54;;;;;;;2.50;2.47;;;10.20;1.00;;;;;;6261536;28;20304;-55
2022/04/07 15:46:56;;;;;;;2.93;2.30;;;10.10;1.00;;;;;;6261439;28;20233;-56
2022/04/07 15:50:01;;;;;;;2.57;2.47;;;10.20;1.00;;;;;;6274266;28;20270;-56
2022/04/07 15:53:03;;;;;;;2.57;2.50;;;10.20;1.00;;;;;;6287549;28;20528;-56
2022/04/07 15:56:06;;;;;;;2.23;2.23;;;10.00;1.00;;;;;;6289942;28;21147;-58
2022/04/07 15:59:09;;;;;;;2.60;2.50;;;9.90;1.00;;;;;;6287209;28;20321;-56
2022/04/07 16:02:12;;;;;;;2.50;2.40;;;9.80;1.00;;;;;;6268410;28;20273;-56
2022/04/07 16:05:16;;;;;;;2.70;2.60;;;9.80;1.00;;;;;;6264615;28;21649;-57
2022/04/07 16:08:19;;;;;;;2.47;2.37;;;9.80;1.00;;;;;;6261529;28;20241;-56
2022/04/07 16:11:22;;;;;;;2.37;2.37;;;9.60;1.00;;;;;;6254965;28;20581;-58
2022/04/07 16:14:24;;;;;;;2.70;2.60;;;9.60;1.00;;;;;;6256360;28;20268;-56
2022/04/07 16:17:27;;;;;;;2.83;2.80;;;9.60;1.00;;;;;;6277190;28;20221;-56